sensor_id;sensor_type;location;lat;lon;timestamp;P1;durP1;ratioP1;P2;durP2;ratioP2
14992;SDS011;7592;51.088;13.732;2023-04-08T00:01:34;13.13;;;10.93;;
14992;SDS011;7592;51.088;13.732;2023-04-08T00:06:26;12.70;;;11.07;;
14992;SDS011;7592;51.088;13.732;2023-04-08T00:11:18;13.67;;;11.30;;
14992;SDS011;7592;51.088;13.732;2023-04-08T00:16:10;15.37;;;12.43;;
14992;SDS011;7592;51.088;13.732;2023-04-08T00:21:03;15.17;;;12.90;;
14992;SDS011;7592;51.088;13.732;2023-04-08T00:25:55;15.00;;;12.63;;
14992;SDS011;7592;51.088;13.732;2023-04-08T00:30:47;16.10;;;12.80;;
14992;SDS011;7592;51.088;13.732;2023-04-08T00:35:39;14.57;;;13.03;;
14992;SDS011;7592;51.088;13.732;2023-04-08T00:40:31;15.53;;;13.50;;
14992;SDS011;7592;51.088;13.732;2023-04-08T00:45:24;14.73;;;12.43;;
14992;SDS011;7592;51.088;13.732;2023-04-08T00:50:16;18.57;;;14.40;;
14992;SDS011;7592;51.088;13.732;2023-04-08T00:55:09;17.33;;;13.90;;
14992;SDS011;7592;51.088;13.732;2023-04-08T01:00:01;18.90;;;14.53;;
14992;SDS011;7592;51.088;13.732;2023-04-08T01:05:01;17.43;;;14.10;;
14992;SDS011;7592;51.088;13.732;2023-04-08T01:11:11;19.10;;;15.07;;
14992;SDS011;7592;51.088;13.732;2023-04-08T01:16:25;19.77;;;14.97;;
14992;SDS011;7592;51.088;13.732;2023-04-08T01:21:18;17.57;;;13.27;;
14992;SDS011;7592;51.088;13.732;2023-04-08T01:26:13;17.40;;;13.87;;
14992;SDS011;7592;51.088;13.732;2023-04-08T01:31:15;19.30;;;13.83;;
14992;SDS011;7592;51.088;13.732;2023-04-08T01:36:08;17.60;;;13.83;;
14992;SDS011;7592;51.088;13.732;2023-04-08T01:41:01;19.90;;;14.87;;
14992;SDS011;7592;51.088;13.732;2023-04-08T01:45:56;18.03;;;14.13;;
14992;SDS011;7592;51.088;13.732;2023-04-08T01:50:49;17.10;;;13.70;;
14992;SDS011;7592;51.088;13.732;2023-04-08T01:55:43;14.17;;;11.53;;
14992;SDS011;7592;51.088;13.732;2023-04-08T02:00:38;14.03;;;11.30;;
14992;SDS011;7592;51.088;13.732;2023-04-08T02:05:33;15.10;;;11.43;;
14992;SDS011;7592;51.088;13.732;2023-04-08T02:10:26;15.53;;;11.20;;
14992;SDS011;7592;51.088;13.732;2023-04-08T02:15:19;14.57;;;10.43;;
14992;SDS011;7592;51.088;13.732;2023-04-08T02:20:15;13.13;;;10.40;;
14992;SDS011;7592;51.088;13.732;2023-04-08T02:25:13;12.50;;;9.37;;
14992;SDS011;7592;51.088;13.732;2023-04-08T02:30:07;11.80;;;9.37;;
14992;SDS011;7592;51.088;13.732;2023-04-08T02:35:03;10.37;;;8.07;;
14992;SDS011;7592;51.088;13.732;2023-04-08T02:39:57;10.80;;;9.03;;
14992;SDS011;7592;51.088;13.732;2023-04-08T02:44:49;9.93;;;8.23;;
14992;SDS011;7592;51.088;13.732;2023-04-08T02:49:42;9.43;;;8.20;;
14992;SDS011;7592;51.088;13.732;2023-04-08T02:54:34;7.87;;;7.07;;
14992;SDS011;7592;51.088;13.732;2023-04-08T02:59:26;9.33;;;7.40;;
14992;SDS011;7592;51.088;13.732;2023-04-08T03:04:18;8.97;;;7.47;;
14992;SDS011;7592;51.088;13.732;2023-04-08T03:09:10;8.37;;;6.97;;
14992;SDS011;7592;51.088;13.732;2023-04-08T03:14:02;7.73;;;6.57;;
14992;SDS011;7592;51.088;13.732;2023-04-08T03:18:54;8.83;;;6.90;;
14992;SDS011;7592;51.088;13.732;2023-04-08T03:23:48;7.17;;;6.47;;
14992;SDS011;7592;51.088;13.732;2023-04-08T03:28:40;6.33;;;5.73;;
14992;SDS011;7592;51.088;13.732;2023-04-08T03:33:32;6.53;;;5.83;;
14992;SDS011;7592;51.088;13.732;2023-04-08T03:38:24;6.47;;;5.80;;
14992;SDS011;7592;51.088;13.732;2023-04-08T03:43:16;5.13;;;4.63;;
14992;SDS011;7592;51.088;13.732;2023-04-08T03:48:11;6.03;;;4.93;;
14992;SDS011;7592;51.088;13.732;2023-04-08T03:53:03;5.73;;;5.00;;
14992;SDS011;7592;51.088;13.732;2023-04-08T03:57:55;6.00;;;5.40;;
14992;SDS011;7592;51.088;13.732;2023-04-08T04:02:47;5.53;;;4.90;;
14992;SDS011;7592;51.088;13.732;2023-04-08T04:07:39;5.17;;;4.67;;
14992;SDS011;7592;51.088;13.732;2023-04-08T04:12:31;4.77;;;4.37;;
14992;SDS011;7592;51.088;13.732;2023-04-08T04:17:24;6.27;;;5.10;;
14992;SDS011;7592;51.088;13.732;2023-04-08T04:22:16;5.17;;;4.33;;
14992;SDS011;7592;51.088;13.732;2023-04-08T04:27:08;6.60;;;4.93;;
14992;SDS011;7592;51.088;13.732;2023-04-08T04:32:00;6.17;;;5.33;;
14992;SDS011;7592;51.088;13.732;2023-04-08T04:36:52;6.67;;;5.80;;
14992;SDS011;7592;51.088;13.732;2023-04-08T04:41:44;6.67;;;5.47;;
14992;SDS011;7592;51.088;13.732;2023-04-08T04:46:37;7.70;;;6.23;;
14992;SDS011;7592;51.088;13.732;2023-04-08T04:51:30;6.07;;;5.47;;
14992;SDS011;7592;51.088;13.732;2023-04-08T04:56:23;7.83;;;6.80;;
14992;SDS011;7592;51.088;13.732;2023-04-08T05:01:16;8.17;;;6.50;;
14992;SDS011;7592;51.088;13.732;2023-04-08T05:06:08;7.40;;;6.13;;
14992;SDS011;7592;51.088;13.732;2023-04-08T05:11:01;6.20;;;5.60;;
14992;SDS011;7592;51.088;13.732;2023-04-08T05:15:53;6.47;;;5.47;;
14992;SDS011;7592;51.088;13.732;2023-04-08T05:20:45;7.03;;;6.07;;
14992;SDS011;7592;51.088;13.732;2023-04-08T05:25:37;6.10;;;5.50;;
14992;SDS011;7592;51.088;13.732;2023-04-08T05:30:29;7.23;;;6.53;;
14992;SDS011;7592;51.088;13.732;2023-04-08T05:35:23;6.60;;;5.90;;
14992;SDS011;7592;51.088;13.732;2023-04-08T05:40:16;8.50;;;6.60;;
14992;SDS011;7592;51.088;13.732;2023-04-08T05:45:08;8.80;;;7.83;;
14992;SDS011;7592;51.088;13.732;2023-04-08T05:50:00;7.87;;;6.70;;
14992;SDS011;7592;51.088;13.732;2023-04-08T05:54:52;15.23;;;11.43;;
14992;SDS011;7592;51.088;13.732;2023-04-08T05:59:45;14.63;;;13.03;;
14992;SDS011;7592;51.088;13.732;2023-04-08T06:04:37;11.80;;;10.10;;
14992;SDS011;7592;51.088;13.732;2023-04-08T06:09:29;11.03;;;8.07;;
14992;SDS011;7592;51.088;13.732;2023-04-08T06:14:21;8.60;;;7.60;;
14992;SDS011;7592;51.088;13.732;2023-04-08T06:19:13;9.97;;;8.90;;
14992;SDS011;7592;51.088;13.732;2023-04-08T06:24:05;13.10;;;10.33;;
14992;SDS011;7592;51.088;13.732;2023-04-08T06:28:58;13.33;;;10.73;;
14992;SDS011;7592;51.088;13.732;2023-04-08T06:33:50;13.80;;;12.13;;
14992;SDS011;7592;51.088;13.732;2023-04-08T06:38:42;14.20;;;12.43;;
14992;SDS011;7592;51.088;13.732;2023-04-08T06:43:34;17.47;;;14.10;;
14992;SDS011;7592;51.088;13.732;2023-04-08T06:48:28;17.77;;;15.87;;
14992;SDS011;7592;51.088;13.732;2023-04-08T06:53:22;18.93;;;15.30;;
14992;SDS011;7592;51.088;13.732;2023-04-08T06:58:15;19.50;;;15.47;;
14992;SDS011;7592;51.088;13.732;2023-04-08T07:03:07;22.10;;;17.43;;
14992;SDS011;7592;51.088;13.732;2023-04-08T07:08:00;21.57;;;16.33;;
14992;SDS011;7592;51.088;13.732;2023-04-08T07:12:52;19.73;;;15.70;;
14992;SDS011;7592;51.088;13.732;2023-04-08T07:17:44;19.73;;;17.27;;
14992;SDS011;7592;51.088;13.732;2023-04-08T07:22:38;20.97;;;16.70;;
14992;SDS011;7592;51.088;13.732;2023-04-08T07:27:32;17.63;;;15.77;;
14992;SDS011;7592;51.088;13.732;2023-04-08T07:32:24;60.53;;;34.13;;
14992;SDS011;7592;51.088;13.732;2023-04-08T07:37:18;19.57;;;15.57;;
14992;SDS011;7592;51.088;13.732;2023-04-08T07:42:09;12.80;;;10.63;;
14992;SDS011;7592;51.088;13.732;2023-04-08T07:47:02;10.27;;;9.23;;
14992;SDS011;7592;51.088;13.732;2023-04-08T07:51:54;7.00;;;5.97;;
14992;SDS011;7592;51.088;13.732;2023-04-08T07:56:47;5.90;;;5.30;;
14992;SDS011;7592;51.088;13.732;2023-04-08T08:01:40;5.90;;;5.30;;
14992;SDS011;7592;51.088;13.732;2023-04-08T08:06:32;6.30;;;5.70;;
14992;SDS011;7592;51.088;13.732;2023-04-08T08:11:24;5.00;;;4.60;;
14992;SDS011;7592;51.088;13.732;2023-04-08T08:16:18;6.30;;;5.70;;
14992;SDS011;7592;51.088;13.732;2023-04-08T08:21:10;4.20;;;3.80;;
14992;SDS011;7592;51.088;13.732;2023-04-08T08:26:07;4.33;;;4.03;;
14992;SDS011;7592;51.088;13.732;2023-04-08T08:31:03;4.63;;;4.23;;
14992;SDS011;7592;51.088;13.732;2023-04-08T08:35:56;4.90;;;4.47;;
14992;SDS011;7592;51.088;13.732;2023-04-08T08:40:55;5.33;;;4.83;;
14992;SDS011;7592;51.088;13.732;2023-04-08T08:45:48;6.47;;;5.87;;
14992;SDS011;7592;51.088;13.732;2023-04-08T08:50:40;6.30;;;5.70;;
14992;SDS011;7592;51.088;13.732;2023-04-08T08:55:32;6.70;;;6.10;;
14992;SDS011;7592;51.088;13.732;2023-04-08T09:00:45;6.73;;;6.03;;
14992;SDS011;7592;51.088;13.732;2023-04-08T09:05:56;8.23;;;7.43;;
14992;SDS011;7592;51.088;13.732;2023-04-08T09:10:49;8.07;;;7.33;;
14992;SDS011;7592;51.088;13.732;2023-04-08T09:16:01;9.17;;;8.23;;
14992;SDS011;7592;51.088;13.732;2023-04-08T09:20:59;9.17;;;7.90;;
14992;SDS011;7592;51.088;13.732;2023-04-08T09:25:52;8.87;;;7.97;;
14992;SDS011;7592;51.088;13.732;2023-04-08T09:30:57;8.50;;;7.60;;
14992;SDS011;7592;51.088;13.732;2023-04-08T09:35:49;10.30;;;8.10;;
14992;SDS011;7592;51.088;13.732;2023-04-08T09:40:42;11.23;;;9.23;;
14992;SDS011;7592;51.088;13.732;2023-04-08T09:45:35;10.67;;;9.57;;
14992;SDS011;7592;51.088;13.732;2023-04-08T09:50:31;9.77;;;8.70;;
14992;SDS011;7592;51.088;13.732;2023-04-08T09:55:30;9.07;;;8.17;;
14992;SDS011;7592;51.088;13.732;2023-04-08T10:00:29;10.77;;;9.33;;
14992;SDS011;7592;51.088;13.732;2023-04-08T10:05:24;11.73;;;9.97;;
14992;SDS011;7592;51.088;13.732;2023-04-08T10:10:17;11.13;;;9.33;;
14992;SDS011;7592;51.088;13.732;2023-04-08T10:15:20;11.53;;;10.27;;
14992;SDS011;7592;51.088;13.732;2023-04-08T10:35:28;10.17;;;9.07;;
14992;SDS011;7592;51.088;13.732;2023-04-08T10:40:21;10.70;;;9.63;;
14992;SDS011;7592;51.088;13.732;2023-04-08T10:45:16;9.47;;;8.57;;
14992;SDS011;7592;51.088;13.732;2023-04-08T10:50:13;10.33;;;9.20;;
14992;SDS011;7592;51.088;13.732;2023-04-08T10:55:07;9.33;;;7.87;;
14992;SDS011;7592;51.088;13.732;2023-04-08T10:59:59;8.83;;;7.83;;
14992;SDS011;7592;51.088;13.732;2023-04-08T11:04:52;9.03;;;7.73;;
14992;SDS011;7592;51.088;13.732;2023-04-08T11:09:44;9.97;;;8.97;;
14992;SDS011;7592;51.088;13.732;2023-04-08T11:14:38;10.93;;;9.83;;
14992;SDS011;7592;51.088;13.732;2023-04-08T11:19:31;12.87;;;11.43;;
14992;SDS011;7592;51.088;13.732;2023-04-08T11:24:26;13.47;;;11.97;;
14992;SDS011;7592;51.088;13.732;2023-04-08T11:29:18;18.80;;;14.47;;
14992;SDS011;7592;51.088;13.732;2023-04-08T11:34:11;17.03;;;15.17;;
14992;SDS011;7592;51.088;13.732;2023-04-08T11:39:12;17.63;;;15.60;;
14992;SDS011;7592;51.088;13.732;2023-04-08T11:44:04;18.73;;;15.00;;
14992;SDS011;7592;51.088;13.732;2023-04-08T11:49:01;14.97;;;13.47;;
14992;SDS011;7592;51.088;13.732;2023-04-08T11:53:58;16.37;;;14.63;;
14992;SDS011;7592;51.088;13.732;2023-04-08T11:58:52;17.00;;;15.20;;
14992;SDS011;7592;51.088;13.732;2023-04-08T12:03:57;16.77;;;15.03;;
14992;SDS011;7592;51.088;13.732;2023-04-08T12:08:51;17.97;;;16.10;;
14992;SDS011;7592;51.088;13.732;2023-04-08T12:13:44;17.43;;;15.67;;
14992;SDS011;7592;51.088;13.732;2023-04-08T12:18:36;19.30;;;16.67;;
14992;SDS011;7592;51.088;13.732;2023-04-08T12:23:28;18.73;;;16.73;;
14992;SDS011;7592;51.088;13.732;2023-04-08T12:28:20;21.03;;;18.17;;
14992;SDS011;7592;51.088;13.732;2023-04-08T12:33:12;19.87;;;17.77;;
14992;SDS011;7592;51.088;13.732;2023-04-08T12:38:04;22.30;;;18.40;;
14992;SDS011;7592;51.088;13.732;2023-04-08T12:42:57;21.57;;;18.53;;
14992;SDS011;7592;51.088;13.732;2023-04-08T12:47:49;24.13;;;19.83;;
14992;SDS011;7592;51.088;13.732;2023-04-08T12:52:41;23.87;;;18.30;;
14992;SDS011;7592;51.088;13.732;2023-04-08T12:57:33;25.13;;;20.47;;
14992;SDS011;7592;51.088;13.732;2023-04-08T13:02:25;22.63;;;18.10;;
14992;SDS011;7592;51.088;13.732;2023-04-08T13:07:18;21.73;;;18.17;;
14992;SDS011;7592;51.088;13.732;2023-04-08T13:12:10;22.47;;;16.93;;
14992;SDS011;7592;51.088;13.732;2023-04-08T13:17:02;21.90;;;17.57;;
14992;SDS011;7592;51.088;13.732;2023-04-08T13:21:55;19.53;;;16.63;;
14992;SDS011;7592;51.088;13.732;2023-04-08T13:26:47;22.17;;;17.63;;
14992;SDS011;7592;51.088;13.732;2023-04-08T13:31:39;18.23;;;15.00;;
14992;SDS011;7592;51.088;13.732;2023-04-08T13:36:32;18.70;;;15.40;;
14992;SDS011;7592;51.088;13.732;2023-04-08T13:41:24;17.33;;;14.73;;
14992;SDS011;7592;51.088;13.732;2023-04-08T13:46:16;19.07;;;15.03;;
14992;SDS011;7592;51.088;13.732;2023-04-08T13:51:08;19.73;;;15.83;;
14992;SDS011;7592;51.088;13.732;2023-04-08T13:56:00;15.83;;;12.90;;
14992;SDS011;7592;51.088;13.732;2023-04-08T14:00:54;14.67;;;12.60;;
14992;SDS011;7592;51.088;13.732;2023-04-08T14:05:46;14.67;;;13.10;;
14992;SDS011;7592;51.088;13.732;2023-04-08T14:10:39;17.13;;;12.97;;
14992;SDS011;7592;51.088;13.732;2023-04-08T14:15:33;16.37;;;12.73;;
14992;SDS011;7592;51.088;13.732;2023-04-08T14:20:25;15.90;;;13.07;;
14992;SDS011;7592;51.088;13.732;2023-04-08T14:25:17;44.27;;;21.07;;
14992;SDS011;7592;51.088;13.732;2023-04-08T14:30:09;14.40;;;12.90;;
14992;SDS011;7592;51.088;13.732;2023-04-08T14:35:01;16.27;;;12.80;;
14992;SDS011;7592;51.088;13.732;2023-04-08T14:39:53;19.37;;;14.37;;
14992;SDS011;7592;51.088;13.732;2023-04-08T14:44:45;16.47;;;13.73;;
14992;SDS011;7592;51.088;13.732;2023-04-08T14:49:37;15.67;;;12.60;;
14992;SDS011;7592;51.088;13.732;2023-04-08T14:54:29;14.37;;;12.00;;
14992;SDS011;7592;51.088;13.732;2023-04-08T14:59:21;15.20;;;12.60;;
14992;SDS011;7592;51.088;13.732;2023-04-08T15:04:13;14.10;;;12.37;;
14992;SDS011;7592;51.088;13.732;2023-04-08T15:09:05;16.87;;;11.87;;
14992;SDS011;7592;51.088;13.732;2023-04-08T15:13:57;14.97;;;12.43;;
14992;SDS011;7592;51.088;13.732;2023-04-08T15:18:49;15.57;;;13.63;;
14992;SDS011;7592;51.088;13.732;2023-04-08T15:23:42;15.00;;;13.40;;
14992;SDS011;7592;51.088;13.732;2023-04-08T15:28:34;15.17;;;12.43;;
14992;SDS011;7592;51.088;13.732;2023-04-08T15:33:29;14.10;;;12.43;;
14992;SDS011;7592;51.088;13.732;2023-04-08T15:38:21;14.87;;;13.37;;
14992;SDS011;7592;51.088;13.732;2023-04-08T15:43:13;13.27;;;11.90;;
14992;SDS011;7592;51.088;13.732;2023-04-08T15:48:06;15.43;;;13.60;;
14992;SDS011;7592;51.088;13.732;2023-04-08T15:52:58;17.07;;;15.27;;
14992;SDS011;7592;51.088;13.732;2023-04-08T15:57:50;18.53;;;16.10;;
14992;SDS011;7592;51.088;13.732;2023-04-08T16:02:44;16.67;;;14.60;;
14992;SDS011;7592;51.088;13.732;2023-04-08T16:07:37;15.57;;;13.87;;
14992;SDS011;7592;51.088;13.732;2023-04-08T16:12:29;17.20;;;14.93;;
14992;SDS011;7592;51.088;13.732;2023-04-08T16:17:21;14.63;;;13.13;;
14992;SDS011;7592;51.088;13.732;2023-04-08T16:22:13;16.90;;;13.93;;
14992;SDS011;7592;51.088;13.732;2023-04-08T16:27:05;16.53;;;14.67;;
14992;SDS011;7592;51.088;13.732;2023-04-08T16:31:57;16.73;;;14.17;;
14992;SDS011;7592;51.088;13.732;2023-04-08T16:36:49;15.63;;;12.47;;
14992;SDS011;7592;51.088;13.732;2023-04-08T16:41:42;16.97;;;14.37;;
14992;SDS011;7592;51.088;13.732;2023-04-08T16:46:35;14.93;;;13.00;;
14992;SDS011;7592;51.088;13.732;2023-04-08T16:51:27;15.30;;;13.60;;
14992;SDS011;7592;51.088;13.732;2023-04-08T16:56:19;15.67;;;13.97;;
14992;SDS011;7592;51.088;13.732;2023-04-08T17:01:12;16.53;;;13.30;;
14992;SDS011;7592;51.088;13.732;2023-04-08T17:06:11;25.43;;;19.13;;
14992;SDS011;7592;51.088;13.732;2023-04-08T17:11:13;15.73;;;14.10;;
14992;SDS011;7592;51.088;13.732;2023-04-08T17:16:10;17.17;;;14.23;;
14992;SDS011;7592;51.088;13.732;2023-04-08T17:21:06;15.57;;;13.13;;
14992;SDS011;7592;51.088;13.732;2023-04-08T17:25:59;15.93;;;13.93;;
14992;SDS011;7592;51.088;13.732;2023-04-08T17:30:55;18.73;;;15.60;;
14992;SDS011;7592;51.088;13.732;2023-04-08T17:35:48;18.80;;;15.87;;
14992;SDS011;7592;51.088;13.732;2023-04-08T17:40:40;17.63;;;15.03;;
14992;SDS011;7592;51.088;13.732;2023-04-08T17:45:32;16.57;;;14.43;;
14992;SDS011;7592;51.088;13.732;2023-04-08T17:50:24;17.37;;;13.57;;
14992;SDS011;7592;51.088;13.732;2023-04-08T17:55:16;20.43;;;16.53;;
14992;SDS011;7592;51.088;13.732;2023-04-08T18:00:08;28.93;;;22.63;;
14992;SDS011;7592;51.088;13.732;2023-04-08T18:05:02;23.53;;;18.63;;
14992;SDS011;7592;51.088;13.732;2023-04-08T18:09:56;20.87;;;16.30;;
14992;SDS011;7592;51.088;13.732;2023-04-08T18:14:48;20.73;;;17.07;;
14992;SDS011;7592;51.088;13.732;2023-04-08T18:19:40;21.13;;;17.33;;
14992;SDS011;7592;51.088;13.732;2023-04-08T18:24:32;20.37;;;16.50;;
14992;SDS011;7592;51.088;13.732;2023-04-08T18:29:24;22.47;;;18.10;;
14992;SDS011;7592;51.088;13.732;2023-04-08T18:34:16;25.20;;;20.20;;
14992;SDS011;7592;51.088;13.732;2023-04-08T18:39:11;19.97;;;17.53;;
14992;SDS011;7592;51.088;13.732;2023-04-08T18:44:03;19.70;;;17.60;;
14992;SDS011;7592;51.088;13.732;2023-04-08T18:48:55;19.10;;;16.30;;
14992;SDS011;7592;51.088;13.732;2023-04-08T18:53:47;20.87;;;17.20;;
14992;SDS011;7592;51.088;13.732;2023-04-08T18:58:40;21.13;;;18.90;;
14992;SDS011;7592;51.088;13.732;2023-04-08T19:03:36;21.30;;;17.30;;
14992;SDS011;7592;51.088;13.732;2023-04-08T19:08:28;22.20;;;17.67;;
14992;SDS011;7592;51.088;13.732;2023-04-08T19:13:20;19.10;;;16.80;;
14992;SDS011;7592;51.088;13.732;2023-04-08T19:18:14;23.63;;;19.37;;
14992;SDS011;7592;51.088;13.732;2023-04-08T19:23:06;24.23;;;20.30;;
14992;SDS011;7592;51.088;13.732;2023-04-08T19:27:58;25.20;;;19.63;;
14992;SDS011;7592;51.088;13.732;2023-04-08T19:32:50;23.93;;;19.40;;
14992;SDS011;7592;51.088;13.732;2023-04-08T19:37:42;24.00;;;20.13;;
14992;SDS011;7592;51.088;13.732;2023-04-08T19:42:34;25.00;;;19.67;;
14992;SDS011;7592;51.088;13.732;2023-04-08T19:47:27;28.20;;;21.87;;
14992;SDS011;7592;51.088;13.732;2023-04-08T19:52:20;25.63;;;20.20;;
14992;SDS011;7592;51.088;13.732;2023-04-08T19:57:12;25.17;;;20.03;;
14992;SDS011;7592;51.088;13.732;2023-04-08T20:02:04;27.50;;;21.40;;
14992;SDS011;7592;51.088;13.732;2023-04-08T20:06:57;37.13;;;26.40;;
14992;SDS011;7592;51.088;13.732;2023-04-08T20:11:51;58.77;;;41.23;;
14992;SDS011;7592;51.088;13.732;2023-04-08T20:16:43;51.93;;;34.33;;
14992;SDS011;7592;51.088;13.732;2023-04-08T20:21:35;34.70;;;26.27;;
14992;SDS011;7592;51.088;13.732;2023-04-08T20:26:28;45.77;;;33.33;;
14992;SDS011;7592;51.088;13.732;2023-04-08T20:31:20;33.80;;;24.57;;
14992;SDS011;7592;51.088;13.732;2023-04-08T20:36:12;31.23;;;23.77;;
14992;SDS011;7592;51.088;13.732;2023-04-08T20:41:05;30.93;;;22.97;;
14992;SDS011;7592;51.088;13.732;2023-04-08T20:45:57;43.63;;;31.23;;
14992;SDS011;7592;51.088;13.732;2023-04-08T20:50:49;58.53;;;36.53;;
14992;SDS011;7592;51.088;13.732;2023-04-08T20:55:42;48.53;;;30.77;;
14992;SDS011;7592;51.088;13.732;2023-04-08T21:00:34;40.93;;;27.50;;
14992;SDS011;7592;51.088;13.732;2023-04-08T21:05:26;43.50;;;29.97;;
14992;SDS011;7592;51.088;13.732;2023-04-08T21:10:18;57.87;;;35.50;;
14992;SDS011;7592;51.088;13.732;2023-04-08T21:15:10;43.43;;;29.27;;
14992;SDS011;7592;51.088;13.732;2023-04-08T21:20:03;34.37;;;26.27;;
14992;SDS011;7592;51.088;13.732;2023-04-08T21:24:56;35.90;;;24.80;;
14992;SDS011;7592;51.088;13.732;2023-04-08T21:29:52;129.17;;;68.90;;
14992;SDS011;7592;51.088;13.732;2023-04-08T21:34:44;97.33;;;56.83;;
14992;SDS011;7592;51.088;13.732;2023-04-08T21:39:39;244.43;;;132.13;;
14992;SDS011;7592;51.088;13.732;2023-04-08T21:44:31;162.53;;;92.17;;
14992;SDS011;7592;51.088;13.732;2023-04-08T21:49:23;82.73;;;52.40;;
14992;SDS011;7592;51.088;13.732;2023-04-08T21:54:15;83.43;;;52.17;;
14992;SDS011;7592;51.088;13.732;2023-04-08T21:59:07;56.60;;;38.63;;
14992;SDS011;7592;51.088;13.732;2023-04-08T22:03:59;36.20;;;26.10;;
14992;SDS011;7592;51.088;13.732;2023-04-08T22:08:51;36.77;;;26.13;;
14992;SDS011;7592;51.088;13.732;2023-04-08T22:13:44;56.20;;;38.67;;
14992;SDS011;7592;51.088;13.732;2023-04-08T22:18:36;33.83;;;24.63;;
14992;SDS011;7592;51.088;13.732;2023-04-08T22:23:28;47.27;;;33.83;;
14992;SDS011;7592;51.088;13.732;2023-04-08T22:28:20;40.43;;;30.40;;
14992;SDS011;7592;51.088;13.732;2023-04-08T22:33:12;34.30;;;23.67;;
14992;SDS011;7592;51.088;13.732;2023-04-08T22:38:04;32.93;;;25.57;;
14992;SDS011;7592;51.088;13.732;2023-04-08T22:42:56;39.80;;;28.13;;
14992;SDS011;7592;51.088;13.732;2023-04-08T22:47:48;40.37;;;27.57;;
14992;SDS011;7592;51.088;13.732;2023-04-08T22:52:40;39.70;;;28.10;;
14992;SDS011;7592;51.088;13.732;2023-04-08T22:57:32;33.10;;;24.97;;
14992;SDS011;7592;51.088;13.732;2023-04-08T23:02:25;33.53;;;24.13;;
14992;SDS011;7592;51.088;13.732;2023-04-08T23:07:17;37.77;;;28.03;;
14992;SDS011;7592;51.088;13.732;2023-04-08T23:12:12;50.07;;;38.23;;
14992;SDS011;7592;51.088;13.732;2023-04-08T23:17:04;44.77;;;34.77;;
14992;SDS011;7592;51.088;13.732;2023-04-08T23:21:56;35.07;;;26.93;;
14992;SDS011;7592;51.088;13.732;2023-04-08T23:26:48;49.40;;;35.77;;
14992;SDS011;7592;51.088;13.732;2023-04-08T23:31:40;43.87;;;32.17;;
14992;SDS011;7592;51.088;13.732;2023-04-08T23:36:32;42.50;;;31.73;;
14992;SDS011;7592;51.088;13.732;2023-04-08T23:41:24;36.00;;;26.03;;
14992;SDS011;7592;51.088;13.732;2023-04-08T23:46:16;32.87;;;24.20;;
14992;SDS011;7592;51.088;13.732;2023-04-08T23:51:08;35.73;;;25.13;;
14992;SDS011;7592;51.088;13.732;2023-04-08T23:56:02;35.57;;;24.73;;
